Tunker, Indiana
Current Conditions -  °F | °C
As of 8:35 AM on Saturday 25 Oct 2014 (Local Time) from KASW Reporting Station
Haze Haze  
Wind Chill: 52°   Ceiling: Unl
Heat Index: 52°   Visibility: 4mi
Dew Point: 52°   Wind: 5mph
Humidity: 100%   Direction: 240°WSW
Pressure: 29.91"   Gusts: NA
Location:  41.056°N, 85.6112°W
Report Text: KASW 251235Z AUTO 24004KT 4SM BR CLR 11/11 A2991 RMK AO2
Loading
Personal Weather Stations






























Interactive Weather Map
Tropical Storm Tracking
New forecast layout! Learn more

10-Day Weather Forecast

Advertisements
Track Severe Weather on mobile